createdAt,value
2023-03-29T00:05:46.445Z,99.90
2023-03-29T00:08:14.788Z,99.90
2023-03-29T00:13:09.516Z,99.90
2023-03-29T00:15:36.457Z,99.90
2023-03-29T00:18:03.571Z,99.90
2023-03-29T00:20:30.681Z,99.90
2023-03-29T00:25:25.102Z,99.90
2023-03-29T00:27:52.084Z,99.90
2023-03-29T00:35:13.983Z,99.90
2023-03-29T00:37:41.396Z,99.90
2023-03-29T00:40:10.896Z,99.90
2023-03-29T00:45:25.625Z,99.90
2023-03-29T00:47:57.891Z,99.90
2023-03-29T00:50:29.808Z,99.90
2023-03-29T00:53:03.766Z,99.90
2023-03-29T00:55:39.140Z,99.90
2023-03-29T00:58:10.043Z,99.90
2023-03-29T01:00:52.689Z,99.90
2023-03-29T01:03:24.966Z,99.90
2023-03-29T01:05:57.321Z,99.90
2023-03-29T01:08:29.620Z,99.90
2023-03-29T01:11:11.720Z,99.90
2023-03-29T01:13:46.263Z,99.90
2023-03-29T01:16:20.245Z,99.90
2023-03-29T01:18:48.208Z,99.90
2023-03-29T01:21:37.942Z,99.90
2023-03-29T01:24:15.311Z,99.90
2023-03-29T01:27:03.216Z,99.90
2023-03-29T01:29:40.237Z,99.90
2023-03-29T01:32:16.434Z,99.90
2023-03-29T01:35:02.665Z,99.90
2023-03-29T01:37:37.641Z,99.90
2023-03-29T01:45:26.958Z,99.90
2023-03-29T01:48:00.094Z,99.90
2023-03-29T01:51:03.886Z,99.90
2023-03-29T01:54:01.761Z,99.90
2023-03-29T01:56:29.981Z,99.90
2023-03-29T01:59:07.759Z,99.90
2023-03-29T02:01:49.290Z,99.90
2023-03-29T02:04:22.858Z,99.90
2023-03-29T02:06:54.198Z,99.90
2023-03-29T02:11:51.217Z,99.90
2023-03-29T02:14:18.154Z,99.90
2023-03-29T02:16:46.409Z,99.90
2023-03-29T02:22:08.360Z,99.90
2023-03-29T02:24:36.982Z,99.90
2023-03-29T02:27:05.472Z,99.90
2023-03-29T02:29:35.442Z,99.90
2023-03-29T02:32:13.312Z,99.90
2023-03-29T02:35:18.159Z,99.90
2023-03-29T02:37:49.541Z,99.90
2023-03-29T02:42:46.125Z,99.90
2023-03-29T02:45:17.235Z,99.90
2023-03-29T02:47:52.227Z,99.90
2023-03-29T02:50:20.603Z,99.90
2023-03-29T02:52:59.262Z,99.90
2023-03-29T02:55:34.997Z,99.90
2023-03-29T02:58:08.402Z,99.90
2023-03-29T03:00:42.482Z,99.90
2023-03-29T03:03:10.316Z,99.90
2023-03-29T03:05:38.330Z,99.90
2023-03-29T03:08:07.345Z,99.90
2023-03-29T03:15:31.193Z,99.90
2023-03-29T03:17:58.250Z,99.90
2023-03-29T03:20:26.606Z,99.90
2023-03-29T03:25:21.802Z,99.90
2023-03-29T03:27:49.770Z,99.90
2023-03-29T03:30:17.267Z,99.90
2023-03-29T03:32:44.740Z,99.90
2023-03-29T03:40:17.439Z,99.90
2023-03-29T03:42:44.520Z,99.90
2023-03-29T03:45:12.275Z,99.90
2023-03-29T03:50:07.520Z,99.90
2023-03-29T03:52:35.627Z,99.90
2023-03-29T03:55:02.991Z,99.90
2023-03-29T04:02:24.519Z,99.90
2023-03-29T04:07:19.039Z,99.90
2023-03-29T04:14:40.837Z,99.90
2023-03-29T04:22:02.796Z,99.90
2023-03-29T04:24:29.767Z,99.90
2023-03-29T04:29:24.065Z,99.90
2023-03-29T04:34:18.474Z,99.90
2023-03-29T04:36:45.544Z,99.90
2023-03-29T04:44:08.448Z,99.90
2023-03-29T04:46:35.557Z,99.90
2023-03-29T04:49:02.924Z,99.90
2023-03-29T04:51:31.558Z,99.90
2023-03-29T04:53:58.643Z,99.90
2023-03-29T04:56:26.454Z,99.90
2023-03-29T04:58:56.581Z,99.90
2023-03-29T05:01:23.730Z,99.90
2023-03-29T05:06:18.245Z,99.90
2023-03-29T05:08:45.312Z,99.90
2023-03-29T05:11:13.728Z,99.90
2023-03-29T05:16:08.911Z,99.90
2023-03-29T05:18:36.011Z,99.90
2023-03-29T05:21:04.333Z,99.90
2023-03-29T05:25:59.327Z,99.90
2023-03-29T05:28:27.188Z,99.50
2023-03-29T05:31:05.852Z,99.90
2023-03-29T05:33:33.791Z,99.90
2023-03-29T05:36:02.762Z,97.10
2023-03-29T05:38:30.263Z,99.90
2023-03-29T05:40:57.650Z,98.90
2023-03-29T05:43:24.853Z,97.80
2023-03-29T05:45:56.008Z,97.30
2023-03-29T05:48:24.307Z,96.80
2023-03-29T05:50:54.597Z,96.00
2023-03-29T05:53:24.094Z,97.20
2023-03-29T05:55:51.712Z,96.50
2023-03-29T06:00:51.855Z,92.30
2023-03-29T06:03:25.508Z,90.10
2023-03-29T06:06:00.621Z,88.10
2023-03-29T06:08:28.610Z,89.40
2023-03-29T06:11:05.078Z,91.10
2023-03-29T06:13:34.135Z,91.00
2023-03-29T06:16:01.578Z,93.10
2023-03-29T06:18:28.621Z,94.10
2023-03-29T06:20:56.066Z,95.00
2023-03-29T06:23:23.457Z,94.60
2023-03-29T06:25:53.376Z,93.90
2023-03-29T06:28:20.501Z,94.50
2023-03-29T06:30:49.099Z,95.70
2023-03-29T06:33:17.044Z,95.30
2023-03-29T06:35:46.298Z,99.90
2023-03-29T06:38:13.906Z,96.30
2023-03-29T06:40:41.190Z,95.30
2023-03-29T06:43:08.413Z,99.90
2023-03-29T06:45:37.424Z,96.20
2023-03-29T06:55:29.327Z,95.60
2023-03-29T06:57:56.351Z,93.90
2023-03-29T07:00:30.002Z,93.80
2023-03-29T07:02:59.065Z,93.30
2023-03-29T07:05:29.517Z,93.10
2023-03-29T07:08:08.346Z,93.00
2023-03-29T07:10:41.288Z,92.40
2023-03-29T07:13:13.338Z,95.20
2023-03-29T07:15:41.703Z,96.30
2023-03-29T07:25:34.132Z,96.20
2023-03-29T07:28:01.622Z,95.50
2023-03-29T07:30:32.047Z,94.80
2023-03-29T07:33:00.579Z,92.80
2023-03-29T07:37:56.029Z,91.60
2023-03-29T07:40:24.218Z,87.50
2023-03-29T07:42:54.179Z,84.50
2023-03-29T07:45:26.928Z,75.50
2023-03-29T07:47:57.760Z,74.80
2023-03-29T07:52:54.053Z,70.60
2023-03-29T07:55:21.137Z,73.70
2023-03-29T07:57:49.797Z,74.60
2023-03-29T08:00:17.594Z,74.80
2023-03-29T08:02:46.710Z,70.40
2023-03-29T08:05:19.014Z,71.90
2023-03-29T08:07:50.676Z,71.00
2023-03-29T08:10:19.991Z,72.20
2023-03-29T08:12:48.802Z,71.70
2023-03-29T08:20:13.477Z,68.50
2023-03-29T08:22:40.471Z,65.50
2023-03-29T08:25:08.392Z,58.30
2023-03-29T08:27:37.747Z,54.80
2023-03-29T08:30:09.571Z,50.20
2023-03-29T08:32:38.044Z,52.10
2023-03-29T08:35:06.819Z,49.00
2023-03-29T08:37:33.990Z,46.20
2023-03-29T08:40:01.502Z,42.50
2023-03-29T08:42:34.686Z,42.30
2023-03-29T08:48:11.750Z,44.50
2023-03-29T08:50:48.039Z,43.70
2023-03-29T08:53:40.160Z,43.60
2023-03-29T08:56:15.663Z,40.30
2023-03-29T08:58:43.550Z,40.60
2023-03-29T09:01:11.640Z,41.30
2023-03-29T09:03:45.095Z,39.80
2023-03-29T09:06:13.603Z,39.10
2023-03-29T09:08:43.909Z,33.50
2023-03-29T09:19:25.185Z,24.70
2023-03-29T09:22:28.185Z,22.10
2023-03-29T09:43:04.321Z,22.40
2023-03-29T10:13:12.468Z,31.60
2023-03-29T10:15:40.469Z,31.20
2023-03-29T10:20:40.823Z,28.50
2023-03-29T10:33:20.794Z,28.20
2023-03-29T10:43:39.793Z,28.80
2023-03-29T11:01:23.680Z,29.80
2023-03-29T11:12:01.059Z,29.90
2023-03-29T11:14:45.234Z,29.10
2023-03-29T11:17:23.776Z,30.20
2023-03-29T11:22:41.118Z,28.80
2023-03-29T11:33:32.393Z,26.90
2023-03-29T11:44:22.821Z,29.00
2023-03-29T11:52:04.394Z,32.20
2023-03-29T11:57:44.189Z,34.50
2023-03-29T12:05:34.504Z,33.10
2023-03-29T12:16:30.200Z,32.20
2023-03-29T12:32:07.950Z,37.00
2023-03-29T12:34:57.039Z,35.40
2023-03-29T12:37:51.540Z,33.70
2023-03-29T12:40:20.944Z,36.30
2023-03-29T12:43:04.971Z,36.20
2023-03-29T12:45:42.902Z,36.50
2023-03-29T12:48:17.663Z,36.80
2023-03-29T12:53:25.355Z,36.70
2023-03-29T12:55:56.016Z,38.80
2023-03-29T12:58:27.807Z,40.40
2023-03-29T13:01:10.276Z,38.40
2023-03-29T13:03:40.020Z,34.20
2023-03-29T13:06:13.146Z,36.50
2023-03-29T13:08:45.231Z,33.50
2023-03-29T13:11:25.987Z,34.50
2023-03-29T13:13:53.392Z,34.50
2023-03-29T13:16:29.336Z,34.40
2023-03-29T13:19:11.878Z,32.70
2023-03-29T13:22:06.328Z,32.40
2023-03-29T13:24:50.591Z,34.20
2023-03-29T13:27:26.535Z,33.40
2023-03-29T13:29:59.057Z,30.60
2023-03-29T13:41:27.864Z,26.30
2023-03-29T13:43:56.447Z,24.50
2023-03-29T13:49:27.336Z,27.80
2023-03-29T13:54:41.944Z,27.30
2023-03-29T14:00:00.818Z,42.00
2023-03-29T14:09:58.707Z,29.60
2023-03-29T14:19:59.038Z,25.90
2023-03-29T14:25:06.150Z,26.40
2023-03-29T14:27:37.326Z,27.20
2023-03-29T14:30:21.767Z,26.80
2023-03-29T14:45:18.072Z,26.70
2023-03-29T14:50:24.572Z,26.90
2023-03-29T15:05:37.278Z,26.60
2023-03-29T15:10:37.519Z,27.10
2023-03-29T15:13:12.455Z,25.90
2023-03-29T15:15:40.243Z,26.10
2023-03-29T15:20:39.542Z,25.70
2023-03-29T15:23:22.076Z,26.60
2023-03-29T15:28:35.487Z,24.50
2023-03-29T15:31:12.211Z,24.40
2023-03-29T15:36:10.574Z,26.20
2023-03-29T15:38:44.775Z,24.50
2023-03-29T15:41:15.461Z,24.70
2023-03-29T15:58:38.298Z,24.90
2023-03-29T22:46:53.879Z,99.90
2023-03-29T23:31:18.239Z,99.90
2023-03-29T23:41:13.068Z,99.90
2023-03-29T23:46:15.515Z,99.90
